createdAt,value
2023-05-14T00:00:23.197Z,101171.50
2023-05-14T00:01:25.716Z,101171.28
2023-05-14T00:02:28.303Z,101170.41
2023-05-14T00:03:31.314Z,101174.94
2023-05-14T00:04:33.649Z,101171.00
2023-05-14T00:05:36.105Z,101166.69
2023-05-14T00:06:38.277Z,101174.38
2023-05-14T00:07:40.472Z,101161.31
2023-05-14T00:08:42.645Z,101160.50
2023-05-14T00:09:44.806Z,101168.03
2023-05-14T00:10:47.052Z,101159.22
2023-05-14T00:11:49.203Z,101161.19
2023-05-14T00:12:52.063Z,101155.81
2023-05-14T00:13:54.252Z,101160.09
2023-05-14T00:14:56.680Z,101152.03
2023-05-14T00:15:58.856Z,101153.69
2023-05-14T00:17:01.451Z,101156.25
2023-05-14T00:18:03.879Z,101156.25
2023-05-14T00:19:06.235Z,101151.75
2023-05-14T00:20:08.959Z,101155.00
2023-05-14T00:21:11.196Z,101156.09
2023-05-14T00:22:13.565Z,101154.38
2023-05-14T00:23:15.888Z,101148.53
2023-05-14T00:24:18.252Z,101149.03
2023-05-14T00:25:20.434Z,101151.81
2023-05-14T00:26:22.699Z,101149.31
2023-05-14T00:27:26.020Z,101148.81
2023-05-14T00:28:28.210Z,101148.81
2023-05-14T00:29:30.530Z,101153.38
2023-05-14T00:30:32.879Z,101150.22
2023-05-14T00:31:35.398Z,101150.22
2023-05-14T00:32:38.481Z,101144.84
2023-05-14T00:33:41.630Z,101153.31
2023-05-14T00:34:43.872Z,101144.97
2023-05-14T00:35:46.279Z,101144.69
2023-05-14T00:36:48.471Z,101144.47
2023-05-14T00:37:50.835Z,101143.34
2023-05-14T00:38:53.108Z,101145.81
2023-05-14T00:39:55.933Z,101151.69
2023-05-14T00:40:58.317Z,101150.59
2023-05-14T00:42:00.547Z,101142.69
2023-05-14T00:43:03.723Z,101144.84
2023-05-14T00:44:06.026Z,101142.16
2023-05-14T00:45:09.108Z,101139.63
2023-05-14T00:46:12.703Z,101137.91
2023-05-14T00:47:14.965Z,101141.41
2023-05-14T00:48:18.089Z,101140.38
2023-05-14T00:49:21.173Z,101143.88
2023-05-14T00:50:23.998Z,101133.25
2023-05-14T00:51:26.863Z,101143.41
2023-05-14T00:52:29.074Z,101141.53
2023-05-14T00:53:31.564Z,101139.16
2023-05-14T00:54:34.834Z,101146.22
2023-05-14T00:55:38.813Z,101134.53
2023-05-14T00:56:41.260Z,101137.09
2023-05-14T00:57:43.851Z,101139.19
2023-05-14T00:58:46.107Z,101139.72
2023-05-14T00:59:48.768Z,101131.09
2023-05-14T01:00:52.278Z,101130.28
2023-05-14T01:01:54.612Z,101132.25
2023-05-14T01:02:57.105Z,101133.69
2023-05-14T01:04:00.716Z,101136.44
2023-05-14T01:05:03.689Z,101137.00
2023-05-14T01:06:29.459Z,101130.53
2023-05-14T01:07:59.154Z,101128.66
2023-05-14T01:09:28.820Z,101138.06
2023-05-14T01:10:45.765Z,101137.53
2023-05-14T01:12:00.143Z,101129.25
2023-05-14T01:13:18.346Z,101136.81
2023-05-14T01:14:22.083Z,101136.75
2023-05-14T01:15:28.865Z,101129.31
2023-05-14T01:16:34.350Z,101128.38
2023-05-14T01:17:59.852Z,101129.13
2023-05-14T01:19:05.019Z,101136.19
2023-05-14T01:20:08.428Z,101129.03
2023-05-14T01:21:43.017Z,101125.19
2023-05-14T01:22:45.385Z,101128.00
2023-05-14T01:23:47.802Z,101124.38
2023-05-14T01:24:50.028Z,101119.00
2023-05-14T01:25:52.407Z,101118.81
2023-05-14T01:27:07.236Z,101124.13
2023-05-14T01:28:18.031Z,101122.38
2023-05-14T01:29:29.146Z,101126.00
2023-05-14T01:30:36.765Z,101127.00
2023-05-14T01:31:43.070Z,101126.25
2023-05-14T01:32:51.161Z,101126.25
2023-05-14T01:33:56.206Z,101123.56
2023-05-14T01:35:00.747Z,101124.81
2023-05-14T01:36:04.732Z,101123.81
2023-05-14T01:37:08.570Z,101123.06
2023-05-14T01:38:13.989Z,101127.50
2023-05-14T01:39:16.753Z,101123.75
2023-05-14T01:40:19.418Z,101120.50
2023-05-14T01:41:23.652Z,101121.31
2023-05-14T01:42:26.482Z,101118.94
2023-05-14T01:43:30.131Z,101118.09
2023-05-14T01:44:33.638Z,101117.00
2023-05-14T01:45:36.736Z,101120.59
2023-05-14T01:46:39.295Z,101114.66
2023-05-14T01:47:41.713Z,101112.72
2023-05-14T01:48:44.171Z,101109.97
2023-05-14T01:49:46.343Z,101113.78
2023-05-14T01:50:48.732Z,101109.72
2023-05-14T01:51:51.397Z,101109.50
2023-05-14T01:52:56.823Z,101111.53
2023-05-14T01:53:59.257Z,101113.75
2023-05-14T01:55:01.480Z,101111.53
2023-05-14T01:56:04.113Z,101118.50
2023-05-14T01:57:06.298Z,101109.28
2023-05-14T01:58:08.737Z,101110.97
2023-05-14T01:59:11.112Z,101116.25
2023-05-14T02:00:14.201Z,101119.75
2023-05-14T02:01:16.956Z,101122.97
2023-05-14T02:02:19.516Z,101111.41
2023-05-14T02:03:21.883Z,101118.66
2023-05-14T02:04:24.201Z,101119.47
2023-05-14T02:05:27.384Z,101116.88
2023-05-14T02:06:29.908Z,101115.06
2023-05-14T02:07:32.386Z,101118.66
2023-05-14T02:08:34.754Z,101117.66
2023-05-14T02:09:37.016Z,101116.94
2023-05-14T02:10:39.520Z,101112.13
2023-05-14T02:11:41.715Z,101118.72
2023-05-14T02:12:44.142Z,101113.84
2023-05-14T02:13:46.495Z,101112.47
2023-05-14T02:14:48.761Z,101117.75
2023-05-14T02:15:51.305Z,101115.25
2023-05-14T02:16:53.561Z,101112.47
2023-05-14T02:17:55.950Z,101111.16
2023-05-14T02:18:58.706Z,101114.59
2023-05-14T02:20:00.973Z,101113.84
2023-05-14T02:21:03.158Z,101116.59
2023-05-14T02:22:05.691Z,101112.09
2023-05-14T02:23:08.946Z,101116.78
2023-05-14T02:24:11.507Z,101110.84
2023-05-14T02:25:13.700Z,101107.06
2023-05-14T02:26:15.928Z,101104.25
2023-05-14T02:27:18.575Z,101106.91
2023-05-14T02:28:20.782Z,101108.59
2023-05-14T02:29:23.508Z,101106.81
2023-05-14T02:30:25.862Z,101099.44
2023-05-14T02:31:28.166Z,101107.34
2023-05-14T02:32:30.624Z,101097.53
2023-05-14T02:33:33.587Z,101098.59
2023-05-14T02:34:36.236Z,101101.97
2023-05-14T02:35:38.434Z,101091.88
2023-05-14T02:36:41.103Z,101095.25
2023-05-14T02:37:43.447Z,101092.44
2023-05-14T02:38:45.881Z,101089.75
2023-05-14T02:39:49.073Z,101099.63
2023-05-14T02:40:51.459Z,101094.25
2023-05-14T02:41:53.836Z,101097.88
2023-05-14T02:42:56.083Z,101096.84
2023-05-14T02:43:58.813Z,101095.53
2023-05-14T02:45:01.026Z,101103.59
2023-05-14T02:46:03.742Z,101104.47
2023-05-14T02:47:06.246Z,101099.34
2023-05-14T02:48:08.738Z,101100.19
2023-05-14T02:49:11.594Z,101098.19
2023-05-14T02:50:13.836Z,101104.19
2023-05-14T02:51:16.681Z,101106.34
2023-05-14T02:52:19.136Z,101100.63
2023-05-14T02:53:21.402Z,101104.66
2023-05-14T02:54:23.840Z,101104.69
2023-05-14T02:55:26.524Z,101102.66
2023-05-14T02:56:28.766Z,101103.84
2023-05-14T02:57:31.182Z,101104.97
2023-05-14T02:58:34.037Z,101099.66
2023-05-14T02:59:36.681Z,101103.63
2023-05-14T03:00:39.274Z,101104.94
2023-05-14T03:01:42.562Z,101102.38
2023-05-14T03:02:45.543Z,101105.44
2023-05-14T03:03:49.366Z,101103.91
2023-05-14T03:04:52.156Z,101103.47
2023-05-14T03:05:54.420Z,101105.50
2023-05-14T03:06:57.010Z,101098.13
2023-05-14T03:07:59.267Z,101098.88
2023-05-14T03:09:01.685Z,101101.81
2023-05-14T03:10:07.271Z,101101.44
2023-05-14T03:11:09.466Z,101102.19
2023-05-14T03:12:12.897Z,101088.19
2023-05-14T03:13:17.896Z,101096.63
2023-05-14T03:14:20.155Z,101097.41
2023-05-14T03:15:22.723Z,101100.50
2023-05-14T03:16:25.570Z,101101.75
2023-05-14T03:17:27.807Z,101104.16
2023-05-14T03:18:30.853Z,101100.78
2023-05-14T03:19:33.479Z,101102.53
2023-05-14T03:20:35.949Z,101100.41
2023-05-14T03:21:38.364Z,101100.34
2023-05-14T03:22:40.960Z,101105.47
2023-05-14T03:23:43.304Z,101100.13
2023-05-14T03:24:46.441Z,101105.09
2023-05-14T03:25:48.823Z,101107.00
2023-05-14T03:26:51.258Z,101107.78
2023-05-14T03:27:53.673Z,101100.66
2023-05-14T03:28:55.972Z,101105.38
2023-05-14T03:29:58.502Z,101104.00
2023-05-14T03:31:01.272Z,101100.69
2023-05-14T03:32:03.717Z,101097.63
2023-05-14T03:33:06.280Z,101097.28
2023-05-14T03:34:11.677Z,101098.75
2023-05-14T03:35:14.076Z,101101.00
2023-05-14T03:36:16.263Z,101096.50
2023-05-14T03:37:18.689Z,101097.91
2023-05-14T03:38:20.934Z,101089.88
2023-05-14T03:39:25.874Z,101089.97
2023-05-14T03:40:28.239Z,101091.69
2023-05-14T03:41:30.452Z,101096.31
2023-05-14T03:42:33.858Z,101096.69
2023-05-14T03:43:36.141Z,101097.63
2023-05-14T03:44:38.437Z,101105.84
2023-05-14T03:45:41.112Z,101099.03
2023-05-14T03:46:43.295Z,101102.53
2023-05-14T03:47:45.774Z,101086.78
2023-05-14T03:48:48.148Z,101094.97
2023-05-14T03:49:50.663Z,101098.81
2023-05-14T03:50:53.288Z,101099.13
2023-05-14T03:51:55.525Z,101099.31
2023-05-14T03:52:57.700Z,101098.63
2023-05-14T03:54:00.048Z,101096.38
2023-05-14T03:55:03.701Z,101095.84
2023-05-14T03:56:06.415Z,101104.72
2023-05-14T03:57:08.635Z,101101.44
2023-05-14T03:58:14.433Z,101094.59
2023-05-14T03:59:17.289Z,101092.94
2023-05-14T04:00:19.852Z,101094.09
2023-05-14T04:01:22.184Z,101092.19
2023-05-14T04:02:24.447Z,101086.16
2023-05-14T04:03:26.753Z,101094.44
2023-05-14T04:04:29.121Z,101085.69
2023-05-14T04:05:31.749Z,101086.47
2023-05-14T04:06:34.167Z,101088.88
2023-05-14T04:07:37.509Z,101079.56
2023-05-14T04:08:39.750Z,101079.75
2023-05-14T04:09:41.946Z,101078.06
2023-05-14T04:10:44.594Z,101079.19
2023-05-14T04:11:46.849Z,101087.03
2023-05-14T04:12:49.056Z,101089.28
2023-05-14T04:13:51.521Z,101084.66
2023-05-14T04:14:53.990Z,101079.50
2023-05-14T04:15:56.342Z,101084.75
2023-05-14T04:17:00.337Z,101084.75
2023-05-14T04:18:02.802Z,101079.91
2023-05-14T04:19:06.055Z,101078.44
2023-05-14T04:20:09.144Z,101081.97
2023-05-14T04:21:11.552Z,101078.97
2023-05-14T04:22:13.803Z,101081.03
2023-05-14T04:23:16.266Z,101080.72
2023-05-14T04:24:18.471Z,101086.91
2023-05-14T04:25:20.980Z,101086.44
2023-05-14T04:26:23.518Z,101086.72
2023-05-14T04:27:25.784Z,101088.19
2023-05-14T04:28:28.171Z,101077.38
2023-05-14T04:29:30.551Z,101080.50
2023-05-14T04:30:32.976Z,101085.38
2023-05-14T04:31:35.503Z,101078.38
2023-05-14T04:32:38.173Z,101082.81
2023-05-14T04:33:40.709Z,101082.00
2023-05-14T04:34:43.428Z,101084.09
2023-05-14T04:35:46.023Z,101081.84
2023-05-14T04:36:48.600Z,101083.50
2023-05-14T04:37:50.818Z,101088.94
2023-05-14T04:38:53.040Z,101086.78
2023-05-14T04:39:55.478Z,101082.66
2023-05-14T04:40:58.360Z,101084.09
2023-05-14T04:42:01.126Z,101086.38
2023-05-14T04:43:03.322Z,101079.16
2023-05-14T04:44:05.759Z,101075.72
2023-05-14T04:45:08.852Z,101080.16
2023-05-14T04:46:11.819Z,101078.06
2023-05-14T04:47:14.363Z,101079.97
2023-05-14T04:48:17.079Z,101082.22
2023-05-14T04:49:19.271Z,101080.06
2023-05-14T04:50:22.038Z,101079.16
2023-05-14T04:51:24.820Z,101073.34
2023-05-14T04:52:27.076Z,101078.00
2023-05-14T04:53:29.516Z,101075.47
2023-05-14T04:54:31.841Z,101075.94
2023-05-14T04:55:34.104Z,101074.84
2023-05-14T04:56:36.717Z,101079.78
2023-05-14T04:57:38.921Z,101080.78
2023-05-14T04:58:41.132Z,101070.34
2023-05-14T04:59:43.556Z,101074.41
2023-05-14T05:00:45.808Z,101083.03
2023-05-14T05:01:48.245Z,101082.47
2023-05-14T05:02:50.806Z,101084.25
2023-05-14T05:03:53.125Z,101075.56
2023-05-14T05:04:55.380Z,101080.38
2023-05-14T05:05:57.952Z,101076.97
2023-05-14T05:07:00.338Z,101080.00
2023-05-14T05:08:02.627Z,101078.50
2023-05-14T05:09:04.816Z,101077.47
2023-05-14T05:10:07.836Z,101080.53
2023-05-14T05:11:19.681Z,101073.66
2023-05-14T05:12:23.103Z,101083.16
2023-05-14T05:13:25.263Z,101076.97
2023-05-14T05:14:27.685Z,101073.94
2023-05-14T05:15:29.861Z,101077.69
2023-05-14T05:16:32.322Z,101078.69
2023-05-14T05:17:34.733Z,101077.47
2023-05-14T05:18:39.082Z,101077.97
2023-05-14T05:19:44.085Z,101073.88
2023-05-14T05:20:46.953Z,101075.69
2023-05-14T05:21:49.592Z,101076.97
2023-05-14T05:22:52.251Z,101079.47
2023-05-14T05:23:54.675Z,101067.78
2023-05-14T05:24:56.973Z,101076.03
2023-05-14T05:25:59.151Z,101062.00
2023-05-14T05:27:01.772Z,101070.19
2023-05-14T05:28:04.136Z,101072.09
2023-05-14T05:29:06.494Z,101070.81
2023-05-14T05:30:09.098Z,101064.19
2023-05-14T05:31:11.562Z,101066.53
2023-05-14T05:32:13.793Z,101072.78
2023-05-14T05:33:16.248Z,101064.69
2023-05-14T05:34:19.467Z,101070.69
2023-05-14T05:35:21.813Z,101069.66
2023-05-14T05:36:24.204Z,101069.50
2023-05-14T05:37:26.786Z,101063.13
2023-05-14T05:38:29.006Z,101065.22
2023-05-14T05:39:34.884Z,101061.06
2023-05-14T05:40:37.696Z,101060.19
2023-05-14T05:41:40.688Z,101058.72
2023-05-14T05:42:43.342Z,101055.31
2023-05-14T05:43:45.545Z,101062.75
2023-05-14T05:44:47.763Z,101060.59
2023-05-14T05:45:50.182Z,101049.03
2023-05-14T05:46:52.528Z,101049.78
2023-05-14T05:47:54.946Z,101054.75
2023-05-14T05:48:57.173Z,101059.81
2023-05-14T05:50:00.192Z,101058.53
2023-05-14T05:51:02.658Z,101051.50
2023-05-14T05:52:05.262Z,101058.19
2023-05-14T05:53:07.702Z,101055.69
2023-05-14T05:54:09.908Z,101055.41
2023-05-14T05:55:12.138Z,101050.91
2023-05-14T05:56:14.328Z,101047.50
2023-05-14T05:57:16.803Z,101054.91
2023-05-14T05:58:19.637Z,101045.88
2023-05-14T05:59:21.846Z,101054.91
2023-05-14T06:00:24.803Z,101053.88
2023-05-14T06:01:27.881Z,101054.19
2023-05-14T06:02:30.486Z,101051.84
2023-05-14T06:03:32.856Z,101057.97
2023-05-14T06:04:35.323Z,101059.75
2023-05-14T06:05:37.660Z,101063.47
2023-05-14T06:06:40.102Z,101060.44
2023-05-14T06:07:42.797Z,101058.25
2023-05-14T06:08:44.974Z,101061.53
2023-05-14T06:09:47.376Z,101056.28
2023-05-14T06:10:49.801Z,101065.28
2023-05-14T06:11:51.974Z,101068.78
2023-05-14T06:12:54.848Z,101058.06
2023-05-14T06:13:57.346Z,101060.09
2023-05-14T06:14:59.512Z,101056.56
2023-05-14T06:16:01.776Z,101051.06
2023-05-14T06:17:04.319Z,101055.00
2023-05-14T06:18:06.811Z,101050.97
2023-05-14T06:19:09.166Z,101055.03
2023-05-14T06:20:11.806Z,101057.97
2023-05-14T06:21:13.997Z,101048.13
2023-05-14T06:22:17.236Z,101049.91
2023-05-14T06:23:19.472Z,101056.19
2023-05-14T06:24:21.659Z,101054.09
2023-05-14T06:25:24.078Z,101057.09
2023-05-14T06:26:26.425Z,101054.16
2023-05-14T06:27:28.708Z,101050.59
2023-05-14T06:28:31.332Z,101046.53
2023-05-14T06:29:33.580Z,101049.78
2023-05-14T06:30:35.831Z,101054.09
2023-05-14T06:31:38.305Z,101050.81
2023-05-14T06:32:40.626Z,101055.72
2023-05-14T06:33:43.054Z,101054.97
2023-05-14T06:34:45.407Z,101052.50
2023-05-14T06:35:47.613Z,101042.25
2023-05-14T06:36:49.834Z,101045.69
2023-05-14T06:37:52.077Z,101052.28
2023-05-14T06:38:54.624Z,101045.78
2023-05-14T06:39:57.870Z,101052.28
2023-05-14T06:41:00.354Z,101047.53
2023-05-14T06:42:02.601Z,101049.78
2023-05-14T06:43:06.709Z,101047.69
2023-05-14T06:44:09.962Z,101052.94
2023-05-14T06:45:12.247Z,101050.38
2023-05-14T06:46:14.627Z,101043.47
2023-05-14T06:47:16.849Z,101050.34
2023-05-14T06:48:20.223Z,101045.50
2023-05-14T06:49:22.814Z,101045.03
2023-05-14T06:50:25.268Z,101045.00
2023-05-14T06:51:27.812Z,101045.41
2023-05-14T06:52:29.990Z,101045.38
2023-05-14T06:53:32.483Z,101039.63
2023-05-14T06:54:34.688Z,101034.81
2023-05-14T06:55:36.936Z,101045.63
2023-05-14T06:56:39.209Z,101042.44
2023-05-14T06:57:41.753Z,101036.22
2023-05-14T06:58:44.100Z,101041.75
2023-05-14T06:59:46.298Z,101035.31
2023-05-14T07:00:48.690Z,101042.50
2023-05-14T07:01:50.908Z,101042.16
2023-05-14T07:02:53.259Z,101033.13
2023-05-14T07:03:55.920Z,101023.13
2023-05-14T07:04:58.194Z,101030.47
2023-05-14T07:06:02.382Z,101028.59
2023-05-14T07:07:05.722Z,101029.72
2023-05-14T07:08:07.975Z,101021.94
2023-05-14T07:09:11.108Z,101017.31
2023-05-14T07:10:13.409Z,101016.66
2023-05-14T07:11:15.931Z,101020.13
2023-05-14T07:12:18.150Z,101023.28
2023-05-14T07:13:20.470Z,101018.34
2023-05-14T07:14:22.852Z,101019.72
2023-05-14T07:15:25.042Z,101029.91
2023-05-14T07:16:27.368Z,101017.13
2023-05-14T07:17:29.708Z,101018.88
2023-05-14T07:18:32.157Z,101021.31
2023-05-14T07:19:34.640Z,101016.06
2023-05-14T07:20:36.803Z,101019.13
2023-05-14T07:21:38.990Z,101013.94
2023-05-14T07:22:41.429Z,101011.84
2023-05-14T07:23:43.629Z,101003.63
2023-05-14T07:24:46.077Z,101003.41
2023-05-14T07:25:48.284Z,101011.31
2023-05-14T07:26:50.794Z,101011.34
2023-05-14T07:27:52.995Z,101001.22
2023-05-14T07:28:55.678Z,101001.66
2023-05-14T07:29:58.068Z,101004.31
2023-05-14T07:31:00.943Z,101003.19
2023-05-14T07:32:03.593Z,100993.28
2023-05-14T07:33:05.900Z,100994.84
2023-05-14T07:34:09.337Z,100996.22
2023-05-14T07:35:11.861Z,100993.81
2023-05-14T07:36:14.105Z,100987.50
2023-05-14T07:37:16.726Z,100995.34
2023-05-14T07:38:19.631Z,100996.69
2023-05-14T07:39:22.266Z,100994.06
2023-05-14T07:40:27.457Z,100988.78
2023-05-14T07:41:29.728Z,100983.41
2023-05-14T07:42:36.497Z,100982.09
2023-05-14T07:43:40.589Z,100990.19
2023-05-14T07:44:43.019Z,100983.59
2023-05-14T07:45:45.587Z,100983.47
2023-05-14T07:46:48.006Z,100983.47
2023-05-14T07:47:52.052Z,100975.25
2023-05-14T07:48:54.728Z,100973.50
2023-05-14T07:49:57.700Z,100976.69
2023-05-14T07:51:00.169Z,100979.41
2023-05-14T07:52:02.812Z,100965.50
2023-05-14T07:53:04.994Z,100975.03
2023-05-14T07:54:07.481Z,100964.81
2023-05-14T07:55:10.410Z,100958.28
2023-05-14T07:56:12.655Z,100963.34
2023-05-14T07:57:14.842Z,100946.59
2023-05-14T07:58:16.999Z,100955.69
2023-05-14T07:59:19.394Z,100956.19
2023-05-14T08:00:22.483Z,100963.00
2023-05-14T08:01:25.169Z,100955.91
2023-05-14T08:02:28.173Z,100958.47
2023-05-14T08:03:30.734Z,100951.19
2023-05-14T08:04:33.188Z,100955.06
2023-05-14T08:05:35.603Z,100950.59
2023-05-14T08:06:38.058Z,100959.75
2023-05-14T08:07:40.349Z,100948.56
2023-05-14T08:08:42.744Z,100953.91
2023-05-14T08:09:45.112Z,100954.13
2023-05-14T08:10:47.328Z,100953.81
2023-05-14T08:11:49.726Z,100951.66
2023-05-14T08:12:51.914Z,100956.94
2023-05-14T08:13:54.143Z,100952.38
2023-05-14T08:14:56.572Z,100952.19
2023-05-14T08:15:58.904Z,100955.91
2023-05-14T08:17:01.348Z,100959.13
2023-05-14T08:18:03.873Z,100954.47
2023-05-14T08:19:06.434Z,100956.34
2023-05-14T08:20:10.029Z,100950.25
2023-05-14T08:21:12.230Z,100949.88
2023-05-14T08:22:14.619Z,100942.69
2023-05-14T08:23:16.790Z,100946.47
2023-05-14T08:24:19.236Z,100947.94
2023-05-14T08:25:21.621Z,100946.84
2023-05-14T08:26:23.920Z,100944.72
2023-05-14T08:27:27.968Z,100943.50
2023-05-14T08:28:30.343Z,100944.28
2023-05-14T08:29:32.659Z,100936.78
2023-05-14T08:30:35.110Z,100933.66
2023-05-14T08:31:37.475Z,100944.22
2023-05-14T08:32:39.708Z,100940.75
2023-05-14T08:33:42.010Z,100935.16
2023-05-14T08:34:44.222Z,100935.75
2023-05-14T08:35:46.623Z,100932.19
2023-05-14T08:36:50.964Z,100920.09
2023-05-14T08:37:53.226Z,100928.59
2023-05-14T08:38:55.423Z,100929.44
2023-05-14T08:39:57.617Z,100924.25
2023-05-14T08:41:00.554Z,100936.38
2023-05-14T08:42:06.680Z,100932.31
2023-05-14T08:43:10.865Z,100934.53
2023-05-14T08:44:16.908Z,100925.69
2023-05-14T08:45:21.304Z,100927.81
2023-05-14T08:46:25.249Z,100921.50
2023-05-14T08:47:30.344Z,100920.78
2023-05-14T08:48:34.524Z,100921.38
2023-05-14T08:49:42.670Z,100916.13
2023-05-14T08:50:45.513Z,100921.13
2023-05-14T08:51:48.593Z,100928.53
2023-05-14T08:52:51.649Z,100921.69
2023-05-14T08:53:54.065Z,100919.81
2023-05-14T08:54:57.301Z,100928.91
2023-05-14T08:56:05.008Z,100916.63
2023-05-14T08:57:10.715Z,100927.81
2023-05-14T08:58:13.133Z,100916.47
2023-05-14T08:59:15.662Z,100912.38
2023-05-14T09:00:18.693Z,100914.84
2023-05-14T09:01:22.097Z,100915.19
2023-05-14T09:02:28.423Z,100916.22
2023-05-14T09:03:31.307Z,100921.81
2023-05-14T09:04:34.935Z,100915.94
2023-05-14T09:05:37.476Z,100913.59
2023-05-14T09:06:42.111Z,100908.50
2023-05-14T09:07:45.146Z,100910.09
2023-05-14T09:08:47.850Z,100916.25
2023-05-14T09:09:51.561Z,100921.00
2023-05-14T09:10:53.768Z,100918.56
2023-05-14T09:11:56.126Z,100914.56
2023-05-14T09:12:58.645Z,100920.31
2023-05-14T09:14:00.834Z,100906.69
2023-05-14T09:15:03.436Z,100919.66
2023-05-14T09:16:06.184Z,100914.03
2023-05-14T09:17:08.873Z,100919.25
2023-05-14T09:18:11.326Z,100921.72
2023-05-14T09:19:15.602Z,100917.19
2023-05-14T09:20:18.706Z,100909.00
2023-05-14T09:21:21.429Z,100910.97
2023-05-14T09:22:23.718Z,100908.00
2023-05-14T09:23:27.160Z,100904.13
2023-05-14T09:24:29.608Z,100901.31
2023-05-14T09:25:32.391Z,100909.75
2023-05-14T09:26:35.842Z,100903.06
2023-05-14T09:27:38.672Z,100900.94
2023-05-14T09:28:44.414Z,100892.72
2023-05-14T09:29:47.841Z,100903.94
2023-05-14T09:30:52.160Z,100899.25
2023-05-14T09:31:55.770Z,100899.13
2023-05-14T09:32:58.036Z,100892.94
2023-05-14T09:34:00.650Z,100887.56
2023-05-14T09:35:18.282Z,100891.53
2023-05-14T09:36:20.825Z,100895.94
2023-05-14T09:37:26.102Z,100896.50
2023-05-14T09:38:32.253Z,100886.25
2023-05-14T09:39:38.685Z,100890.53
2023-05-14T09:40:41.607Z,100878.97
2023-05-14T09:41:43.960Z,100878.91
2023-05-14T09:42:46.819Z,100885.50
2023-05-14T09:43:50.494Z,100880.81
2023-05-14T09:44:53.773Z,100875.31
2023-05-14T09:45:56.027Z,100872.53
2023-05-14T09:46:58.474Z,100864.06
2023-05-14T09:48:01.839Z,100868.19
2023-05-14T09:49:04.337Z,100870.91
2023-05-14T09:50:07.411Z,100876.19
2023-05-14T09:51:10.350Z,100869.16
2023-05-14T09:52:12.754Z,100869.72
2023-05-14T09:53:15.148Z,100871.94
2023-05-14T09:54:17.656Z,100865.34
2023-05-14T09:55:20.724Z,100863.25
2023-05-14T09:56:23.591Z,100867.56
2023-05-14T09:57:27.092Z,100861.16
2023-05-14T09:58:29.727Z,100859.56
2023-05-14T09:59:31.880Z,100856.47
2023-05-14T10:00:34.642Z,100855.25
2023-05-14T10:01:38.313Z,100861.69
2023-05-14T10:02:43.041Z,100856.78
2023-05-14T10:03:45.669Z,100859.44
2023-05-14T10:04:49.764Z,100849.84
2023-05-14T10:05:53.380Z,100841.50
2023-05-14T10:06:56.912Z,100852.78
2023-05-14T10:08:03.249Z,100842.25
2023-05-14T10:09:13.463Z,100843.41
2023-05-14T10:10:18.681Z,100834.41
2023-05-14T10:11:27.403Z,100836.44
2023-05-14T10:12:37.073Z,100839.06
2023-05-14T10:13:42.152Z,100845.44
2023-05-14T10:14:53.361Z,100835.97
2023-05-14T10:16:06.299Z,100838.88
2023-05-14T10:17:18.527Z,100835.97
2023-05-14T10:18:23.569Z,100841.41
2023-05-14T10:19:26.691Z,100835.81
2023-05-14T10:20:30.638Z,100827.47
2023-05-14T10:21:36.097Z,100821.16
2023-05-14T10:22:39.048Z,100828.41
2023-05-14T10:23:42.495Z,100820.22
2023-05-14T10:24:46.073Z,100826.97
2023-05-14T10:25:49.031Z,100825.28
2023-05-14T10:26:52.233Z,100818.56
2023-05-14T10:27:55.424Z,100819.44
2023-05-14T10:28:58.536Z,100820.72
2023-05-14T10:30:00.732Z,100827.25
2023-05-14T10:31:03.765Z,100813.41
2023-05-14T10:32:07.584Z,100815.97
2023-05-14T10:33:13.880Z,100802.66
2023-05-14T10:34:38.268Z,100808.16
2023-05-14T10:36:06.905Z,100812.25
2023-05-14T10:37:14.953Z,100808.63
2023-05-14T10:38:17.335Z,100805.34
2023-05-14T10:39:19.543Z,100796.91
2023-05-14T10:40:24.667Z,100810.22
2023-05-14T10:41:27.219Z,100799.06
2023-05-14T10:42:40.664Z,100798.09
2023-05-14T10:43:44.426Z,100794.84
2023-05-14T10:44:52.721Z,100802.34
2023-05-14T10:45:55.981Z,100786.50
2023-05-14T10:46:58.956Z,100788.72
2023-05-14T10:48:01.881Z,100792.03
2023-05-14T10:49:04.371Z,100798.63
2023-05-14T10:50:08.634Z,100796.03
2023-05-14T10:51:11.850Z,100798.66
2023-05-14T10:52:17.359Z,100792.25
2023-05-14T10:53:20.039Z,100785.84
2023-05-14T10:54:23.488Z,100794.31
2023-05-14T10:55:25.985Z,100792.00
2023-05-14T10:56:29.085Z,100792.63
2023-05-14T10:57:38.101Z,100789.06
2023-05-14T10:58:45.108Z,100792.03
2023-05-14T10:59:56.026Z,100784.81
2023-05-14T11:00:59.281Z,100784.28
2023-05-14T11:02:05.604Z,100784.06
2023-05-14T11:03:08.093Z,100777.78
2023-05-14T11:04:18.686Z,100782.06
2023-05-14T11:05:20.976Z,100783.91
2023-05-14T11:06:23.152Z,100787.19
2023-05-14T11:07:29.784Z,100792.19
2023-05-14T11:08:32.668Z,100780.19
2023-05-14T11:09:35.233Z,100783.00
2023-05-14T11:10:39.259Z,100779.22
2023-05-14T11:11:41.642Z,100783.44
2023-05-14T11:12:46.300Z,100781.75
2023-05-14T11:13:49.913Z,100784.47
2023-05-14T11:14:52.121Z,100781.72
2023-05-14T11:15:55.754Z,100787.81
2023-05-14T11:16:58.131Z,100770.03
2023-05-14T11:18:00.511Z,100781.09
2023-05-14T11:19:04.839Z,100778.25
2023-05-14T11:20:08.839Z,100780.00
2023-05-14T11:21:11.089Z,100776.53
2023-05-14T11:22:16.328Z,100773.53
2023-05-14T11:23:18.552Z,100773.00
2023-05-14T11:24:21.331Z,100770.56
2023-05-14T11:25:25.702Z,100770.47
2023-05-14T11:26:28.157Z,100772.56
2023-05-14T11:27:31.368Z,100772.63
2023-05-14T11:28:34.514Z,100769.94
2023-05-14T11:29:44.701Z,100769.97
2023-05-14T11:30:47.104Z,100760.44
2023-05-14T11:31:50.635Z,100769.47
2023-05-14T11:32:54.292Z,100764.16
2023-05-14T11:33:57.004Z,100763.72
2023-05-14T11:34:59.441Z,100765.63
2023-05-14T11:36:01.797Z,100770.25
2023-05-14T11:37:07.930Z,100763.88
2023-05-14T11:38:17.384Z,100767.41
2023-05-14T11:39:19.706Z,100760.38
2023-05-14T11:40:22.352Z,100754.03
2023-05-14T11:41:26.267Z,100754.84
2023-05-14T11:42:28.489Z,100756.72
2023-05-14T11:43:30.925Z,100755.38
2023-05-14T11:44:33.362Z,100748.56
2023-05-14T11:46:39.239Z,100752.81
2023-05-14T11:47:42.817Z,100747.94
2023-05-14T11:48:45.750Z,100751.19
2023-05-14T11:50:52.086Z,100757.38
2023-05-14T11:52:02.244Z,100751.66
2023-05-14T11:53:04.440Z,100750.03
2023-05-14T11:54:06.658Z,100744.34
2023-05-14T11:55:13.203Z,100753.78
2023-05-14T11:56:15.962Z,100741.75
2023-05-14T11:57:22.615Z,100739.25
2023-05-14T11:58:25.362Z,100751.63
2023-05-14T11:59:28.859Z,100747.69
2023-05-14T12:00:34.096Z,100742.31
2023-05-14T12:01:39.575Z,100743.75
2023-05-14T12:02:41.912Z,100741.38
2023-05-14T12:04:00.406Z,100743.53
2023-05-14T12:05:02.733Z,100739.47
2023-05-14T12:06:07.589Z,100738.22